Time;durP1;ratioP1;P1;durP2;ratioP2;P2;SDS_P1;SDS_P2;PMS_P1;PMS_P2;Temp;Humidity;BMP_temperature;BMP_pressure;BME280_temperature;BME280_humidity;BME280_pressure;Samples;Min_cycle;Max_cycle;Signal;HPM_P1;HPM_P2
2022/09/05 00:01:36;;;;;;;2.55;2.20;;;23.50;58.00;;;;;;5021153;28;44956;-66
2022/09/05 00:04:09;;;;;;;2.67;2.10;;;23.50;58.10;;;;;;5012330;28;44015;-66
2022/09/05 00:07:12;;;;;;;2.22;2.03;;;23.40;57.80;;;;;;5021838;28;43526;-66
2022/09/05 00:10:10;;;;;;;2.22;2.00;;;23.40;58.00;;;;;;5024364;28;43518;-66
2022/09/05 00:12:39;;;;;;;2.10;2.00;;;23.40;57.90;;;;;;5027290;28;44980;-66
2022/09/05 00:15:13;;;;;;;2.20;2.10;;;23.40;58.00;;;;;;5025089;28;43773;-66
2022/09/05 00:17:45;;;;;;;2.10;2.00;;;23.40;58.00;;;;;;5020727;28;43515;-66
2022/09/05 00:20:50;;;;;;;2.40;2.30;;;23.40;58.00;;;;;;5024016;28;43526;-66
2022/09/05 00:24:14;;;;;;;2.22;2.05;;;23.40;58.00;;;;;;5025128;28;44147;-67
2022/09/05 00:27:02;;;;;;;2.15;2.05;;;23.40;58.00;;;;;;5029109;28;44297;-66
2022/09/05 00:29:54;;;;;;;2.38;2.10;;;23.40;58.00;;;;;;5020451;28;43619;-66
2022/09/05 00:32:54;;;;;;;2.42;2.22;;;23.40;57.80;;;;;;5024519;28;43424;-66
2022/09/05 00:35:40;;;;;;;2.17;2.08;;;23.40;58.00;;;;;;5018440;28;44841;-67
2022/09/05 00:38:20;;;;;;;2.63;2.40;;;23.40;58.10;;;;;;5026065;28;43735;-66
2022/09/05 00:41:13;;;;;;;3.72;2.20;;;23.40;58.00;;;;;;5024221;28;43519;-66
2022/09/05 00:43:44;;;;;;;2.33;2.17;;;23.40;58.10;;;;;;5024976;28;43467;-66
2022/09/05 00:46:21;;;;;;;;;;;23.40;58.10;;;;;;5025002;28;44680;-66
2022/09/05 00:49:08;;;;;;;2.40;2.20;;;23.40;58.10;;;;;;5023999;28;43849;-66
2022/09/05 00:51:50;;;;;;;2.20;2.10;;;23.40;58.10;;;;;;5025462;28;43427;-66
2022/09/05 00:54:50;;;;;;;2.40;2.20;;;23.40;58.10;;;;;;5029201;28;43448;-66
2022/09/05 00:57:54;;;;;;;2.05;1.95;;;23.40;58.20;;;;;;5010946;28;43726;-66
2022/09/05 01:00:44;;;;;;;2.30;2.20;;;23.30;58.10;;;;;;5029068;28;43840;-66
2022/09/05 01:03:41;;;;;;;2.13;2.03;;;23.30;58.10;;;;;;5020447;28;43482;-66
2022/09/05 01:06:26;;;;;;;2.10;2.00;;;23.30;58.20;;;;;;5024212;28;43408;-66
2022/09/05 01:09:13;;;;;;;2.38;2.17;;;23.30;58.70;;;;;;5013383;28;44674;-66
2022/09/05 01:11:51;;;;;;;2.38;2.17;;;23.30;58.10;;;;;;5025655;28;43506;-66
2022/09/05 01:14:53;;;;;;;2.13;2.03;;;23.30;58.20;;;;;;5026542;28;43530;-66
2022/09/05 01:17:32;;;;;;;2.20;2.10;;;23.30;58.10;;;;;;5023693;28;43518;-66
2022/09/05 01:20:09;;;;;;;2.22;2.03;;;23.30;58.10;;;;;;5031727;28;44997;-66
2022/09/05 01:23:12;;;;;;;2.50;2.30;;;23.30;58.20;;;;;;5020665;28;43995;-66
2022/09/05 01:26:04;;;;;;;2.22;2.03;;;23.30;58.10;;;;;;5023951;28;43420;-66
2022/09/05 01:28:37;;;;;;;2.40;2.20;;;23.30;58.00;;;;;;5015853;28;43479;-66
2022/09/05 01:31:43;;;;;;;2.28;2.15;;;23.30;58.80;;;;;;5019512;28;43826;-66
2022/09/05 01:34:36;;;;;;;2.40;2.20;;;23.30;58.30;;;;;;5024298;28;43905;-66
2022/09/05 01:37:13;;;;;;;1.98;1.88;;;23.30;58.20;;;;;;5023204;28;43474;-66
2022/09/05 01:40:35;;;;;;;2.20;2.10;;;23.30;58.30;;;;;;5023955;28;43504;-66
2022/09/05 01:43:22;;;;;;;2.13;2.03;;;23.30;58.20;;;;;;4996309;28;44035;-66
2022/09/05 01:46:03;;;;;;;2.10;1.83;;;23.30;58.30;;;;;;5034303;28;43433;-66
2022/09/05 01:49:00;;;;;;;2.10;2.00;;;23.30;58.20;;;;;;5027270;28;43512;-66
2022/09/05 01:51:33;;;;;;;2.40;2.20;;;23.30;58.40;;;;;;5022504;28;43610;-66
2022/09/05 01:54:31;;;;;;;2.30;2.20;;;23.30;58.20;;;;;;5023553;28;43833;-66
2022/09/05 01:57:01;;;;;;;2.53;2.33;;;23.30;58.30;;;;;;5023653;28;44319;-66
2022/09/05 02:00:05;;;;;;;2.60;2.40;;;23.30;58.30;;;;;;5026450;28;43442;-66
2022/09/05 02:02:37;;;;;;;2.30;2.10;;;23.30;58.10;;;;;;5009134;28;43544;-67
2022/09/05 02:05:18;;;;;;;2.13;2.03;;;23.30;58.20;;;;;;5021540;28;46299;-66
2022/09/05 02:08:14;;;;;;;2.13;2.03;;;23.30;58.10;;;;;;5020563;28;43525;-66
2022/09/05 02:10:54;;;;;;;2.08;1.98;;;23.30;58.20;;;;;;5022962;28;43473;-66
2022/09/05 02:13:33;;;;;;;2.42;2.20;;;23.20;58.10;;;;;;5027256;28;43456;-66
2022/09/05 02:16:27;;;;;;;2.20;2.00;;;23.20;58.00;;;;;;5023113;28;45009;-67
2022/09/05 02:19:13;;;;;;;2.20;2.00;;;23.30;58.10;;;;;;5020219;28;43483;-66
2022/09/05 02:21:50;;;;;;;2.40;2.20;;;23.20;58.20;;;;;;5012105;28;43456;-66
2022/09/05 02:24:31;;;;;;;2.17;2.08;;;23.20;58.10;;;;;;5023120;28;43498;-67
2022/09/05 02:27:24;;;;;;;2.10;2.00;;;23.20;58.30;;;;;;5022436;28;43946;-66
2022/09/05 02:30:22;;;;;;;2.28;2.08;;;23.20;58.20;;;;;;5014996;28;43700;-66
2022/09/05 02:33:07;;;;;;;2.28;2.05;;;23.20;58.30;;;;;;5023869;28;43468;-66
2022/09/05 02:36:06;;;;;;;2.33;2.20;;;23.20;58.30;;;;;;5020540;28;43462;-66
2022/09/05 02:38:46;;;;;;;2.10;2.00;;;23.20;58.30;;;;;;5022775;28;44719;-67
2022/09/05 02:41:46;;;;;;;2.72;2.20;;;23.20;58.30;;;;;;5015127;28;43392;-66
2022/09/05 02:44:40;;;;;;;2.17;2.08;;;23.20;58.30;;;;;;5027247;28;43417;-66
2022/09/05 02:48:08;;;;;;;2.10;2.00;;;23.20;58.20;;;;;;5010741;28;43423;-66
2022/09/05 02:51:09;;;;;;;2.00;1.90;;;23.20;58.30;;;;;;5022545;28;44673;-66
2022/09/05 02:54:10;;;;;;;2.17;2.08;;;23.20;58.30;;;;;;5026093;28;43559;-66
2022/09/05 02:57:12;;;;;;;2.25;2.13;;;23.20;58.20;;;;;;5021747;28;43590;-66
2022/09/05 03:00:20;;;;;;;2.30;2.17;;;23.20;58.20;;;;;;5022875;28;43941;-67
2022/09/05 03:03:04;;;;;;;2.08;1.85;;;23.10;58.20;;;;;;5021851;28;43752;-66
2022/09/05 03:05:39;;;;;;;2.20;2.10;;;23.10;58.20;;;;;;5022644;28;44146;-66
2022/09/05 03:08:29;;;;;;;2.10;2.00;;;23.10;58.20;;;;;;5021627;28;43498;-66
2022/09/05 03:11:43;;;;;;;2.30;2.20;;;23.10;58.20;;;;;;5016726;28;43569;-66
2022/09/05 03:14:51;;;;;;;2.17;2.08;;;23.10;58.20;;;;;;5024137;28;43791;-66
2022/09/05 03:18:05;;;;;;;2.38;2.28;;;23.10;58.20;;;;;;5014781;28;43933;-66
2022/09/05 03:21:00;;;;;;;2.13;2.03;;;23.10;58.30;;;;;;5016445;28;43363;-66
2022/09/05 03:24:13;;;;;;;2.17;2.05;;;23.10;58.30;;;;;;5021487;28;43534;-66
2022/09/05 03:27:05;;;;;;;2.05;1.95;;;23.10;58.30;;;;;;5011404;28;45021;-66
2022/09/05 03:29:54;;;;;;;2.60;2.40;;;23.10;58.30;;;;;;5021577;28;43995;-67
2022/09/05 03:32:50;;;;;;;2.30;2.13;;;23.10;58.30;;;;;;5023410;28;43463;-66
2022/09/05 03:35:39;;;;;;;2.25;2.05;;;23.10;58.40;;;;;;5022404;28;43549;-66
2022/09/05 03:38:44;;;;;;;2.67;2.47;;;23.10;58.30;;;;;;5030492;28;44910;-66
2022/09/05 03:41:37;;;;;;;2.17;2.08;;;23.10;58.30;;;;;;5024606;28;43476;-66
2022/09/05 03:44:28;;;;;;;2.20;2.00;;;23.10;58.30;;;;;;5021839;28;43453;-66
2022/09/05 03:47:16;;;;;;;2.30;2.10;;;23.10;58.30;;;;;;5022313;28;43494;-66
2022/09/05 03:49:53;;;;;;;2.20;2.10;;;23.10;58.40;;;;;;5021524;28;43799;-66
2022/09/05 03:53:09;;;;;;;2.38;2.17;;;23.00;58.30;;;;;;5021840;28;43691;-66
2022/09/05 03:56:30;;;;;;;2.42;2.22;;;23.10;58.40;;;;;;5031898;28;43360;-66
2022/09/05 03:59:42;;;;;;;2.10;2.00;;;23.00;58.30;;;;;;5021823;28;43508;-66
2022/09/05 04:02:13;;;;;;;2.88;2.67;;;23.00;58.40;;;;;;5009466;28;44905;-67
2022/09/05 04:05:06;;;;;;;2.30;2.10;;;23.00;58.40;;;;;;5021331;28;43745;-66
2022/09/05 04:08:09;;;;;;;2.45;2.25;;;23.00;58.40;;;;;;5017253;28;43421;-67
2022/09/05 04:11:34;;;;;;;2.22;2.10;;;23.00;58.40;;;;;;5021161;28;43542;-67
2022/09/05 04:14:47;;;;;;;2.33;2.20;;;23.00;58.30;;;;;;5019504;28;43762;-67
2022/09/05 04:17:28;;;;;;;3.10;2.15;;;23.00;58.40;;;;;;5019192;28;43600;-68
2022/09/05 04:20:13;;;;;;;2.30;2.10;;;23.00;58.40;;;;;;5020908;28;43500;-67
2022/09/05 04:23:04;;;;;;;2.20;2.10;;;22.90;58.30;;;;;;5021413;28;44041;-67
2022/09/05 04:26:06;;;;;;;2.58;2.38;;;23.00;58.40;;;;;;5014019;28;44688;-66
2022/09/05 04:29:13;;;;;;;2.60;2.40;;;22.90;58.30;;;;;;5018121;28;43970;-67
2022/09/05 04:32:00;;;;;;;2.45;2.35;;;22.90;58.40;;;;;;5011068;28;43416;-66
2022/09/05 04:35:03;;;;;;;2.70;2.50;;;22.90;58.40;;;;;;5025121;28;43496;-66
2022/09/05 04:37:40;;;;;;;2.30;2.10;;;22.90;58.40;;;;;;5019156;28;44125;-67
2022/09/05 04:40:40;;;;;;;2.70;2.50;;;22.90;58.40;;;;;;5020619;28;43438;-66
2022/09/05 04:43:26;;;;;;;2.22;2.13;;;22.90;58.40;;;;;;5036825;28;43368;-67
2022/09/05 04:46:20;;;;;;;2.40;2.20;;;22.90;58.40;;;;;;5021630;28;43507;-67
2022/09/05 04:49:00;;;;;;;2.25;2.15;;;22.90;58.40;;;;;;5021348;28;44056;-67
2022/09/05 04:51:55;;;;;;;2.42;2.25;;;22.90;58.40;;;;;;5021159;28;44220;-66
2022/09/05 04:54:53;;;;;;;2.30;2.10;;;22.90;58.40;;;;;;5026510;28;43394;-66
2022/09/05 04:57:20;;;;;;;2.20;2.10;;;22.90;58.50;;;;;;5013040;28;43451;-67
2022/09/05 05:00:11;;;;;;;2.40;2.20;;;22.80;58.40;;;;;;5033949;28;44987;-67
2022/09/05 05:03:02;;;;;;;2.75;2.55;;;22.90;58.50;;;;;;5018204;28;44000;-66
2022/09/05 05:05:57;;;;;;;;;;;22.80;58.40;;;;;;5025038;28;43430;-67
2022/09/05 05:09:14;;;;;;;2.55;2.10;;;22.80;58.40;;;;;;5012498;28;43402;-67
2022/09/05 05:11:58;;;;;;;2.53;2.33;;;22.80;58.50;;;;;;5025861;28;43753;-67
2022/09/05 05:14:56;;;;;;;2.50;2.30;;;22.80;58.60;;;;;;5021484;28;43768;-67
2022/09/05 05:18:14;;;;;;;2.80;2.60;;;22.80;58.50;;;;;;5024064;28;43432;-66
2022/09/05 05:21:07;;;;;;;2.50;2.30;;;22.80;58.50;;;;;;5020245;28;43532;-67
2022/09/05 05:23:39;;;;;;;2.10;2.00;;;22.80;58.60;;;;;;5023072;28;45182;-67
2022/09/05 05:26:20;;;;;;;2.55;2.35;;;22.80;58.60;;;;;;5025138;28;43463;-67
2022/09/05 05:29:10;;;;;;;2.20;2.10;;;22.80;58.60;;;;;;5029766;28;43415;-67
2022/09/05 05:31:52;;;;;;;2.50;2.30;;;22.80;58.50;;;;;;5026404;28;43407;-66
2022/09/05 05:34:27;;;;;;;2.35;2.20;;;22.80;58.60;;;;;;5022500;28;43796;-67
2022/09/05 05:37:11;;;;;;;2.15;2.05;;;22.80;58.70;;;;;;5023537;28;44000;-67
2022/09/05 05:39:56;;;;;;;4.22;2.10;;;22.80;58.60;;;;;;5030023;28;43496;-66
2022/09/05 05:42:24;;;;;;;2.70;2.13;;;22.70;58.60;;;;;;5021502;28;44004;-66
2022/09/05 05:44:57;;;;;;;2.10;2.00;;;22.70;58.60;;;;;;5023798;28;44480;-67
2022/09/05 05:47:36;;;;;;;2.50;2.30;;;22.70;58.60;;;;;;5023602;28;43980;-66
2022/09/05 05:50:13;;;;;;;2.53;2.33;;;22.70;58.70;;;;;;5017483;28;44108;-66
2022/09/05 05:52:55;;;;;;;2.15;2.05;;;22.70;58.60;;;;;;5024028;28;43471;-66
2022/09/05 05:56:01;;;;;;;2.58;2.38;;;22.70;58.60;;;;;;5023316;28;44705;-66
2022/09/05 05:58:56;;;;;;;2.20;2.10;;;22.70;58.60;;;;;;5022700;28;43820;-66
2022/09/05 06:01:52;;;;;;;2.25;2.05;;;22.70;58.50;;;;;;5023288;28;43424;-66
2022/09/05 06:04:48;;;;;;;2.30;2.20;;;22.70;58.60;;;;;;5019405;28;43484;-66
2022/09/05 06:07:46;;;;;;;2.95;2.38;;;22.70;58.60;;;;;;5028246;28;45003;-66
2022/09/05 06:10:52;;;;;;;2.42;2.30;;;22.70;58.60;;;;;;5014505;28;43419;-66
2022/09/05 06:14:34;;;;;;;2.15;2.00;;;22.70;58.60;;;;;;5024417;28;44171;-66
2022/09/05 06:17:46;;;;;;;2.55;2.42;;;22.60;58.60;;;;;;5013269;28;43537;-67
2022/09/05 06:20:20;;;;;;;2.25;2.13;;;22.60;58.70;;;;;;5022854;28;44045;-67
2022/09/05 06:23:23;;;;;;;3.03;2.30;;;22.60;58.70;;;;;;5032986;28;43693;-66
2022/09/05 06:26:20;;;;;;;2.45;2.35;;;22.60;58.70;;;;;;5022310;28;43360;-67
2022/09/05 06:29:02;;;;;;;2.58;2.38;;;22.60;58.70;;;;;;5038272;28;43507;-65
2022/09/05 06:31:51;;;;;;;2.53;2.33;;;22.60;58.70;;;;;;5012704;28;44719;-65
2022/09/05 06:34:56;;;;;;;2.40;2.20;;;22.60;58.70;;;;;;5028903;28;43981;-65
2022/09/05 06:37:43;;;;;;;2.42;2.22;;;22.60;58.70;;;;;;5021577;28;43464;-65
2022/09/05 06:40:37;;;;;;;2.35;2.22;;;22.60;58.70;;;;;;5022200;28;43475;-66
2022/09/05 06:43:08;;;;;;;2.55;2.35;;;22.60;58.70;;;;;;5030206;28;44682;-65
2022/09/05 06:46:00;;;;;;;2.55;2.10;;;22.60;58.70;;;;;;5021775;28;43909;-66
2022/09/05 06:48:48;;;;;;;2.13;2.03;;;22.60;58.70;;;;;;5034540;28;43373;-66
2022/09/05 06:51:41;;;;;;;2.42;2.22;;;22.60;58.70;;;;;;5018611;28;43551;-66
2022/09/05 06:54:23;;;;;;;2.50;2.30;;;22.60;58.80;;;;;;5026996;28;44026;-66
2022/09/05 06:57:09;;;;;;;2.60;2.40;;;22.60;58.70;;;;;;5023832;28;43942;-66
2022/09/05 07:00:28;;;;;;;2.30;2.10;;;22.60;58.70;;;;;;5022585;28;43404;-65
2022/09/05 07:03:10;;;;;;;2.30;2.10;;;22.60;58.80;;;;;;4964370;28;44082;-65
2022/09/05 07:05:57;;;;;;;2.50;2.30;;;22.60;58.70;;;;;;4961163;28;45168;-65
2022/09/05 07:08:43;;;;;;;2.70;2.50;;;22.60;58.70;;;;;;4996564;28;43536;-65
2022/09/05 07:11:19;;;;;;;2.42;2.33;;;22.60;58.70;;;;;;5022348;28;43502;-66
2022/09/05 07:13:53;;;;;;;2.53;2.33;;;22.60;58.80;;;;;;5027377;28;43483;-66
2022/09/05 07:16:28;;;;;;;2.35;2.20;;;22.60;58.80;;;;;;5022120;28;44595;-65
2022/09/05 07:19:26;;;;;;;2.30;2.10;;;22.60;58.80;;;;;;5022559;28;43474;-66
2022/09/05 07:22:21;;;;;;;2.55;2.35;;;22.60;58.70;;;;;;5022261;28;43556;-66
2022/09/05 07:25:12;;;;;;;2.10;2.00;;;22.60;58.80;;;;;;5012946;28;43468;-66
2022/09/05 07:28:02;;;;;;;2.50;2.30;;;22.60;58.90;;;;;;5031830;28;45107;-67
2022/09/05 07:30:59;;;;;;;2.50;2.30;;;22.60;58.90;;;;;;5019856;28;43702;-66
2022/09/05 07:33:29;;;;;;;2.90;2.30;;;22.50;58.90;;;;;;5022921;28;43490;-66
2022/09/05 07:36:09;;;;;;;2.20;2.10;;;22.50;58.90;;;;;;5021747;28;43557;-66
2022/09/05 07:38:38;;;;;;;2.38;2.28;;;22.60;58.90;;;;;;5022152;28;44608;-66
2022/09/05 07:41:31;;;;;;;2.17;2.08;;;22.60;58.90;;;;;;5022043;28;44189;-66
2022/09/05 07:44:08;;;;;;;2.40;2.20;;;22.60;59.00;;;;;;5021026;28;43404;-66
2022/09/05 07:46:40;;;;;;;2.80;2.60;;;22.60;58.90;;;;;;5022133;28;43620;-67
2022/09/05 07:49:15;;;;;;;2.30;2.10;;;22.60;58.90;;;;;;5021091;28;43910;-67
2022/09/05 07:51:54;;;;;;;2.45;2.20;;;22.60;58.90;;;;;;5021992;28;43806;-66
2022/09/05 07:54:45;;;;;;;2.53;2.35;;;22.50;58.90;;;;;;5021765;28;43510;-66
2022/09/05 07:57:41;;;;;;;2.50;2.30;;;22.60;59.00;;;;;;5022554;28;43454;-67
2022/09/05 08:00:23;;;;;;;2.85;2.30;;;22.50;58.90;;;;;;5021254;28;43811;-66
2022/09/05 08:03:07;;;;;;;2.10;2.00;;;22.50;59.60;;;;;;5021858;28;43691;-67
2022/09/05 08:05:58;;;;;;;2.40;2.20;;;22.60;59.00;;;;;;5021650;28;43455;-63
2022/09/05 08:08:49;;;;;;;2.45;2.25;;;22.60;59.00;;;;;;5021796;28;43539;-65
2022/09/05 08:11:37;;;;;;;3.15;2.50;;;22.60;59.00;;;;;;5020427;28;44736;-66
2022/09/05 08:14:15;;;;;;;2.72;2.40;;;22.60;59.00;;;;;;5022690;28;43567;-66
2022/09/05 08:17:07;;;;;;;2.53;2.33;;;22.60;58.90;;;;;;5027280;28;43496;-66
2022/09/05 08:19:40;;;;;;;2.42;2.33;;;22.60;58.90;;;;;;5019892;28;43499;-66
2022/09/05 08:22:19;;;;;;;2.70;2.50;;;22.60;59.50;;;;;;5033304;28;44981;-66
2022/09/05 08:25:04;;;;;;;3.15;2.70;;;22.70;58.90;;;;;;5022982;28;43522;-66
2022/09/05 08:28:02;;;;;;;2.95;2.58;;;22.70;58.90;;;;;;5020223;28;43487;-66
2022/09/05 08:30:38;;;;;;;2.47;2.28;;;22.60;58.80;;;;;;5024910;28;43498;-66
2022/09/05 08:33:22;;;;;;;2.58;2.40;;;22.60;58.80;;;;;;5026320;28;44727;-66
2022/09/05 08:36:07;;;;;;;3.53;2.60;;;22.70;58.80;;;;;;5025698;28;44222;-66
2022/09/05 08:38:38;;;;;;;2.38;2.17;;;22.70;58.90;;;;;;5024440;28;43534;-66
2022/09/05 08:41:18;;;;;;;3.00;2.72;;;22.70;58.90;;;;;;5036003;28;43519;-67
2022/09/05 08:44:35;;;;;;;2.53;2.20;;;22.70;58.90;;;;;;5013901;28;44789;-66
2022/09/05 08:47:32;;;;;;;2.38;2.17;;;22.70;58.80;;;;;;5021285;28;43427;-66
2022/09/05 08:50:22;;;;;;;2.75;2.40;;;22.70;58.80;;;;;;5037821;28;43639;-67
2022/09/05 08:53:16;;;;;;;2.60;2.40;;;22.80;58.90;;;;;;5029391;28;43410;-66
2022/09/05 08:56:09;;;;;;;2.42;2.22;;;22.80;58.90;;;;;;5024374;28;44719;-67
2022/09/05 08:59:25;;;;;;;2.30;2.10;;;22.80;58.80;;;;;;5025530;28;43706;-66
2022/09/05 09:02:39;;;;;;;2.50;2.30;;;22.80;58.80;;;;;;4980643;28;43563;-66
2022/09/05 09:05:20;;;;;;;2.60;2.40;;;22.80;58.80;;;;;;5010160;28;43631;-66
2022/09/05 09:07:55;;;;;;;4.32;3.22;;;22.90;58.90;;;;;;5020016;28;44705;-67
2022/09/05 09:10:38;;;;;;;2.90;2.70;;;22.90;59.00;;;;;;5022375;28;43471;-66
2022/09/05 09:13:08;;;;;;;2.80;2.60;;;22.90;59.00;;;;;;5027032;28;43554;-66
2022/09/05 09:15:38;;;;;;;3.33;2.73;;;22.90;58.80;;;;;;5023807;28;43557;-66
2022/09/05 09:18:15;;;;;;;2.83;2.63;;;22.90;58.90;;;;;;5023871;28;44982;-65
2022/09/05 09:21:20;;;;;;;2.78;2.58;;;22.90;58.80;;;;;;5022755;28;43511;-65
2022/09/05 09:23:47;;;;;;;3.83;3.13;;;23.00;58.90;;;;;;5020708;28;43471;-65
2022/09/05 09:26:16;;;;;;;3.30;3.08;;;23.00;59.00;;;;;;5027695;28;43450;-65
2022/09/05 09:29:02;;;;;;;3.63;2.72;;;23.00;59.00;;;;;;5025927;28;43798;-64
2022/09/05 09:31:57;;;;;;;3.42;2.95;;;23.00;59.00;;;;;;5025088;28;43543;-64
2022/09/05 09:34:25;;;;;;;2.80;2.60;;;23.10;59.10;;;;;;5022695;28;43499;-65
2022/09/05 09:37:13;;;;;;;3.50;3.20;;;23.10;59.10;;;;;;5023109;28;43617;-65
2022/09/05 09:39:59;;;;;;;3.35;2.70;;;23.10;59.10;;;;;;5023674;28;44672;-64
2022/09/05 09:42:51;;;;;;;2.70;2.50;;;23.10;59.10;;;;;;5022682;28;43679;-65
2022/09/05 09:45:43;;;;;;;2.90;2.70;;;23.10;59.10;;;;;;5022894;28;43424;-65
2022/09/05 09:48:28;;;;;;;3.30;2.83;;;23.10;59.20;;;;;;5025243;28;43423;-65
2022/09/05 09:51:44;;;;;;;2.88;2.67;;;23.10;59.10;;;;;;5025623;28;44973;-65
2022/09/05 09:54:15;;;;;;;3.05;2.75;;;23.20;59.10;;;;;;5012585;28;43998;-65
2022/09/05 09:57:08;;;;;;;3.00;2.80;;;23.20;59.20;;;;;;5018070;28;43603;-65
2022/09/05 10:00:00;;;;;;;3.13;2.80;;;23.20;59.10;;;;;;5021838;28;43555;-65
2022/09/05 10:03:01;;;;;;;3.22;2.75;;;23.20;59.30;;;;;;5025000;28;43793;-64
2022/09/05 10:06:07;;;;;;;2.88;2.63;;;23.20;59.30;;;;;;5011333;28;43780;-64
2022/09/05 10:09:17;;;;;;;2.70;2.50;;;23.20;59.30;;;;;;5040122;28;43523;-63
2022/09/05 10:12:27;;;;;;;3.27;2.30;;;23.20;59.20;;;;;;5026621;28;43420;-64
2022/09/05 10:15:10;;;;;;;2.70;2.50;;;23.20;59.40;;;;;;5023585;28;44720;-64
2022/09/05 10:18:18;;;;;;;2.92;2.50;;;23.20;59.30;;;;;;5017188;28;43481;-64
2022/09/05 10:21:13;;;;;;;2.80;2.42;;;23.30;59.40;;;;;;5023078;28;43427;-65
2022/09/05 10:23:49;;;;;;;2.63;2.40;;;23.30;59.40;;;;;;5010870;28;43490;-64
2022/09/05 10:26:52;;;;;;;2.67;2.47;;;23.30;59.50;;;;;;5022883;28;44971;-64
2022/09/05 10:29:44;;;;;;;2.60;2.40;;;23.30;59.30;;;;;;5015805;28;43504;-64
2022/09/05 10:32:32;;;;;;;2.70;2.50;;;23.30;59.50;;;;;;5021772;28;43504;-65
2022/09/05 10:35:24;;;;;;;2.60;2.40;;;23.30;59.50;;;;;;4997957;28;43449;-64
2022/09/05 10:38:19;;;;;;;2.67;2.47;;;23.40;59.50;;;;;;5022513;28;44943;-65
2022/09/05 10:40:51;;;;;;;2.42;2.33;;;23.40;59.40;;;;;;5022613;28;44013;-64
2022/09/05 10:44:01;;;;;;;2.60;2.40;;;23.40;59.40;;;;;;5016635;28;43383;-64
2022/09/05 10:46:44;;;;;;;3.20;2.20;;;23.40;59.30;;;;;;5020301;28;43590;-63
2022/09/05 10:49:29;;;;;;;2.55;2.08;;;23.40;59.20;;;;;;5021275;28;43882;-64
2022/09/05 10:52:10;;;;;;;2.40;2.20;;;23.50;59.40;;;;;;5019075;28;43488;-63
2022/09/05 10:55:29;;;;;;;2.33;2.13;;;23.50;59.20;;;;;;5019574;28;43558;-64
2022/09/05 10:57:59;;;;;;;2.40;2.20;;;23.50;59.30;;;;;;5005018;28;43570;-64
2022/09/05 11:00:59;;;;;;;3.60;2.53;;;23.50;59.50;;;;;;5023162;28;44699;-63
2022/09/05 11:04:10;;;;;;;2.47;2.28;;;23.60;59.50;;;;;;5016939;28;43679;-64
2022/09/05 11:07:14;;;;;;;2.53;2.40;;;23.60;59.40;;;;;;5019794;28;43448;-65
2022/09/05 11:10:16;;;;;;;2.20;2.10;;;23.60;59.40;;;;;;5020606;28;44033;-64
2022/09/05 11:13:04;;;;;;;2.40;2.20;;;23.70;59.30;;;;;;5026120;28;44045;-63
2022/09/05 11:15:56;;;;;;;2.60;2.40;;;23.70;59.30;;;;;;5021689;28;43471;-64
2022/09/05 11:18:41;;;;;;;2.42;2.25;;;23.70;59.20;;;;;;5021413;28;43511;-64
2022/09/05 11:21:44;;;;;;;3.42;2.33;;;23.70;59.20;;;;;;5023293;28;43558;-63
2022/09/05 11:24:41;;;;;;;2.27;2.17;;;23.80;59.20;;;;;;5025380;28;44977;-64
2022/09/05 11:27:25;;;;;;;2.40;2.20;;;23.80;59.30;;;;;;5023946;28;43919;-63
2022/09/05 11:30:06;;;;;;;2.70;2.20;;;23.80;59.20;;;;;;5021802;28;44085;-63
2022/09/05 11:32:45;;;;;;;2.28;2.17;;;23.90;59.30;;;;;;5022162;28;43476;-63
2022/09/05 11:35:48;;;;;;;2.30;2.20;;;23.90;59.00;;;;;;5018625;28;44670;-64
2022/09/05 11:38:56;;;;;;;2.40;2.20;;;23.90;58.80;;;;;;5021082;28;43426;-63
2022/09/05 11:42:06;;;;;;;2.63;2.25;;;24.00;58.80;;;;;;5021426;28;43443;-63
2022/09/05 11:44:46;;;;;;;;;;;24.00;58.80;;;;;;5022575;28;43421;-64
2022/09/05 11:47:32;;;;;;;3.95;2.40;;;24.00;58.70;;;;;;5030989;28;44877;-64
2022/09/05 11:50:26;;;;;;;3.20;2.40;;;24.00;58.90;;;;;;5016103;28;43439;-63
2022/09/05 11:53:42;;;;;;;2.60;2.22;;;24.10;59.00;;;;;;5034484;28;43434;-63
2022/09/05 11:56:24;;;;;;;2.33;2.13;;;24.10;58.90;;;;;;4995788;28;43521;-63
2022/09/05 11:59:32;;;;;;;3.30;2.53;;;24.10;58.80;;;;;;5026792;28;44725;-64
2022/09/05 12:02:35;;;;;;;2.40;2.22;;;24.10;58.70;;;;;;5008054;28;43525;-64
2022/09/05 12:05:29;;;;;;;2.35;2.00;;;24.20;58.90;;;;;;5024071;28;43439;-64
2022/09/05 12:08:41;;;;;;;2.50;2.30;;;24.20;58.60;;;;;;5022140;28;43501;-64
2022/09/05 12:11:43;;;;;;;3.78;2.13;;;24.20;58.90;;;;;;5024357;28;43799;-64
2022/09/05 12:14:35;;;;;;;2.20;2.00;;;24.30;58.90;;;;;;5020314;28;43456;-63
2022/09/05 12:17:33;;;;;;;2.45;2.22;;;24.30;58.80;;;;;;5025003;28;43510;-64
2022/09/05 12:20:10;;;;;;;2.40;2.17;;;24.30;58.90;;;;;;5025623;28;43578;-63
2022/09/05 12:23:18;;;;;;;2.70;2.30;;;24.30;58.90;;;;;;5025064;28;43900;-63
2022/09/05 12:26:29;;;;;;;2.88;2.45;;;24.30;58.90;;;;;;5006159;28;43529;-63
2022/09/05 12:29:23;;;;;;;2.47;2.28;;;24.40;59.10;;;;;;5022872;28;43486;-63
2022/09/05 12:32:07;;;;;;;2.00;1.90;;;24.40;59.60;;;;;;5024800;28;43510;-63
2022/09/05 12:35:02;;;;;;;2.40;2.28;;;24.40;58.90;;;;;;5030370;28;44705;-63
2022/09/05 12:38:27;;;;;;;2.40;2.25;;;24.50;58.90;;;;;;5014456;28;43702;-64
2022/09/05 12:41:24;;;;;;;2.20;2.10;;;24.50;58.70;;;;;;5014872;28;43483;-63
2022/09/05 12:44:29;;;;;;;2.55;2.10;;;24.50;58.60;;;;;;5025187;28;43404;-64
2022/09/05 12:47:16;;;;;;;2.53;2.33;;;24.60;58.70;;;;;;5022892;28;44987;-64
2022/09/05 12:49:55;;;;;;;2.78;2.20;;;24.60;58.60;;;;;;5024042;28;43936;-63
2022/09/05 12:52:48;;;;;;;2.33;2.13;;;24.60;58.60;;;;;;5055060;28;43467;-64
2022/09/05 12:55:16;;;;;;;2.30;2.10;;;24.60;58.50;;;;;;5024725;28;43552;-63
2022/09/05 12:57:45;;;;;;;2.53;2.33;;;24.70;58.40;;;;;;5024454;28;44972;-63
2022/09/05 13:00:44;;;;;;;2.30;2.10;;;24.60;58.60;;;;;;5035577;28;43399;-64
2022/09/05 13:03:37;;;;;;;2.30;2.10;;;24.70;58.60;;;;;;5025414;28;43541;-64
2022/09/05 13:06:39;;;;;;;2.30;2.20;;;24.70;58.60;;;;;;5023726;28;44033;-63
2022/09/05 13:09:16;;;;;;;2.60;1.77;;;24.70;58.50;;;;;;5024041;28;44938;-63
2022/09/05 13:12:02;;;;;;;2.10;2.00;;;24.70;58.40;;;;;;5025930;28;43720;-64
2022/09/05 13:14:59;;;;;;;2.28;2.05;;;24.70;58.40;;;;;;5019856;28;43443;-64
2022/09/05 13:18:00;;;;;;;2.20;2.10;;;24.70;58.40;;;;;;5024250;28;43439;-63
2022/09/05 13:20:33;;;;;;;1.90;1.80;;;24.80;58.40;;;;;;5014647;28;44768;-64
2022/09/05 13:23:22;;;;;;;1.90;1.80;;;24.80;58.40;;;;;;5024015;28;43974;-63
2022/09/05 13:26:04;;;;;;;2.13;2.03;;;24.80;58.30;;;;;;5023759;28;43487;-64
2022/09/05 13:28:53;;;;;;;2.58;2.38;;;24.90;58.40;;;;;;5014612;28;43492;-63
2022/09/05 13:31:39;;;;;;;2.67;2.10;;;24.90;58.30;;;;;;5025467;28;43792;-63
2022/09/05 13:34:29;;;;;;;2.10;2.00;;;24.90;58.30;;;;;;5023033;28;43451;-63
2022/09/05 13:37:28;;;;;;;2.15;2.05;;;24.90;58.30;;;;;;5024123;28;43452;-64
2022/09/05 13:40:18;;;;;;;2.30;2.10;;;24.90;58.40;;;;;;5017971;28;43500;-63
2022/09/05 13:43:15;;;;;;;;;;;24.90;58.40;;;;;;5039218;28;44729;-64
2022/09/05 13:46:09;;;;;;;5.13;2.20;;;24.90;58.60;;;;;;5003732;28;43558;-64
2022/09/05 13:48:41;;;;;;;2.20;2.10;;;24.90;58.70;;;;;;5024921;28;43423;-64
2022/09/05 13:51:42;;;;;;;2.20;2.00;;;24.90;58.60;;;;;;5024993;28;43469;-64
2022/09/05 13:54:31;;;;;;;2.63;2.10;;;24.90;58.70;;;;;;5023787;28;44908;-65
2022/09/05 13:57:36;;;;;;;2.42;2.22;;;24.90;58.70;;;;;;5027789;28;43997;-64
2022/09/05 14:00:17;;;;;;;2.47;2.28;;;25.00;58.70;;;;;;5022657;28;43495;-64
2022/09/05 14:03:22;;;;;;;2.35;2.17;;;25.00;58.60;;;;;;5020175;28;43511;-64
2022/09/05 14:06:05;;;;;;;;;;;25.00;58.60;;;;;;5025108;28;44533;-64
2022/09/05 14:09:03;;;;;;;3.15;2.33;;;25.00;58.60;;;;;;5024779;28;43518;-64
2022/09/05 14:11:54;;;;;;;2.50;2.30;;;25.00;58.70;;;;;;5022169;28;43458;-65
2022/09/05 14:14:36;;;;;;;2.30;2.10;;;25.10;58.70;;;;;;5025652;28;43514;-64
2022/09/05 14:18:16;;;;;;;2.50;2.30;;;25.10;58.60;;;;;;5024126;28;43794;-64
2022/09/05 14:21:17;;;;;;;2.38;2.10;;;25.10;58.50;;;;;;4983550;28;43637;-64
2022/09/05 14:23:52;;;;;;;2.90;2.40;;;25.10;58.60;;;;;;5021252;28;43545;-65
2022/09/05 14:26:28;;;;;;;2.50;2.30;;;25.10;58.40;;;;;;5019374;28;43435;-64
2022/09/05 14:29:08;;;;;;;2.30;2.20;;;25.20;59.10;;;;;;5023216;28;44442;-64
2022/09/05 14:32:00;;;;;;;3.47;2.10;;;25.20;59.00;;;;;;5021701;28;43705;-64
2022/09/05 14:35:06;;;;;;;2.85;2.10;;;25.20;59.00;;;;;;5024100;28;43399;-64
2022/09/05 14:38:11;;;;;;;2.28;2.08;;;25.20;59.00;;;;;;5020513;28;43449;-64
2022/09/05 14:41:10;;;;;;;3.08;2.05;;;25.20;58.90;;;;;;5021397;28;43805;-65
2022/09/05 14:44:15;;;;;;;4.35;2.30;;;25.30;59.00;;;;;;5017585;28;43694;-64
2022/09/05 14:47:03;;;;;;;2.28;2.10;;;25.40;59.10;;;;;;5021652;28;43479;-64
2022/09/05 14:49:50;;;;;;;2.58;2.38;;;25.40;59.00;;;;;;5017924;28;43485;-63
2022/09/05 14:52:27;;;;;;;2.83;2.15;;;25.40;58.90;;;;;;5020467;28;43758;-64